createdAt,value
2022-10-05T05:57:17.306Z,8.20
2022-10-05T06:00:07.287Z,8.00
2022-10-05T06:02:58.743Z,6.90
2022-10-05T06:05:44.049Z,8.43
2022-10-05T06:08:33.225Z,10.20
2022-10-05T06:11:24.268Z,9.13
2022-10-05T06:14:10.334Z,7.13
2022-10-05T06:16:54.093Z,8.27
2022-10-05T06:19:32.812Z,6.43
2022-10-05T06:22:19.511Z,10.17
2022-10-05T06:25:10.327Z,10.10
2022-10-05T06:28:06.672Z,7.87
2022-10-05T06:31:07.405Z,10.50
2022-10-05T06:33:53.497Z,8.43
2022-10-05T06:36:51.566Z,7.50
2022-10-05T06:39:55.460Z,11.17
2022-10-05T06:42:50.225Z,10.13
2022-10-05T06:46:07.596Z,7.67
2022-10-05T06:49:23.055Z,8.60
2022-10-05T06:52:28.636Z,8.13
2022-10-05T06:55:19.615Z,7.63
2022-10-05T06:58:26.787Z,9.97
2022-10-05T07:01:16.867Z,8.83
2022-10-05T07:04:18.518Z,7.37
2022-10-05T07:07:01.156Z,7.50
2022-10-05T07:09:51.679Z,8.15
2022-10-05T07:12:47.346Z,8.37
2022-10-05T07:15:43.839Z,10.13
2022-10-05T07:19:03.348Z,10.67
2022-10-05T07:21:49.276Z,9.23
2022-10-05T07:24:36.700Z,10.80
2022-10-05T07:27:21.089Z,9.43
2022-10-05T07:30:05.250Z,9.13
2022-10-05T07:33:03.259Z,13.10
2022-10-05T07:36:05.468Z,6.83
2022-10-05T07:38:49.367Z,9.57
2022-10-05T07:41:35.359Z,8.40
2022-10-05T07:44:22.950Z,7.50
2022-10-05T07:47:08.142Z,10.07
2022-10-05T07:49:57.105Z,9.90
2022-10-05T07:52:42.480Z,7.53
2022-10-05T07:55:25.863Z,9.83
2022-10-05T07:58:17.349Z,8.53
2022-10-05T08:01:11.521Z,9.33
2022-10-05T08:04:00.125Z,11.47
2022-10-05T08:06:51.191Z,7.03
2022-10-05T08:09:46.096Z,10.80
2022-10-05T08:12:38.323Z,9.20
2022-10-05T08:15:20.899Z,8.23
2022-10-05T08:18:03.290Z,7.00
2022-10-05T08:20:48.792Z,8.67
2022-10-05T08:23:31.535Z,11.10
2022-10-05T08:26:25.595Z,9.73
2022-10-05T08:29:16.954Z,9.98
2022-10-05T08:31:59.287Z,10.50
2022-10-05T08:34:49.133Z,8.85
2022-10-05T08:37:31.004Z,6.57
2022-10-05T08:40:42.440Z,9.40
2022-10-05T08:43:47.950Z,12.00
2022-10-05T08:47:07.430Z,7.53
2022-10-05T08:50:22.201Z,15.00
2022-10-05T08:53:41.309Z,9.57
2022-10-05T08:56:36.112Z,12.35
2022-10-05T09:00:10.732Z,10.10
2022-10-05T09:03:36.460Z,8.98
2022-10-05T09:06:36.629Z,9.48
2022-10-05T09:10:01.502Z,8.93
2022-10-05T09:13:35.216Z,11.20
2022-10-05T09:16:53.429Z,8.52
2022-10-05T09:20:27.540Z,8.38
2022-10-05T09:23:24.677Z,9.80
2022-10-05T09:26:10.071Z,9.02
2022-10-05T09:29:08.819Z,9.07
2022-10-05T09:32:16.246Z,7.97
2022-10-05T09:35:28.700Z,6.88
2022-10-05T09:38:25.158Z,8.75
2022-10-05T09:41:45.936Z,6.80
2022-10-05T09:45:07.999Z,10.63
2022-10-05T09:48:20.550Z,10.63
2022-10-05T09:52:06.799Z,8.85
2022-10-05T09:55:25.917Z,8.05
2022-10-05T09:58:38.502Z,7.18
2022-10-05T10:01:38.555Z,8.77
2022-10-05T10:04:51.172Z,9.98
2022-10-05T10:08:10.418Z,7.93
2022-10-05T10:11:04.890Z,8.55
2022-10-05T10:14:30.180Z,9.27
2022-10-05T10:17:37.731Z,7.75
2022-10-05T10:20:41.168Z,7.65
2022-10-05T10:23:39.147Z,7.90
2022-10-05T10:27:01.630Z,6.90
2022-10-05T10:30:33.174Z,12.45
2022-10-05T10:33:51.400Z,9.32
2022-10-05T10:36:56.152Z,9.75
2022-10-05T10:39:53.757Z,10.95
2022-10-05T10:42:45.200Z,8.55
2022-10-05T10:45:37.120Z,9.50
2022-10-05T10:48:52.428Z,11.93
2022-10-05T10:52:05.192Z,10.02
2022-10-05T10:55:22.137Z,7.13
2022-10-05T10:58:48.424Z,7.57
2022-10-05T11:01:38.890Z,10.23
2022-10-05T11:04:54.685Z,8.18
2022-10-05T11:08:30.874Z,7.28
2022-10-05T11:11:44.475Z,6.00
2022-10-05T11:14:57.553Z,9.52
2022-10-05T11:18:08.563Z,6.35
2022-10-05T11:21:34.592Z,8.13
2022-10-05T11:24:52.724Z,9.52
2022-10-05T11:28:03.327Z,7.53
2022-10-05T11:31:30.250Z,13.82
2022-10-05T11:35:02.044Z,7.18
2022-10-05T11:38:07.073Z,9.52
2022-10-05T11:41:19.394Z,5.65
2022-10-05T11:44:48.185Z,6.25
2022-10-05T11:47:31.265Z,7.82
2022-10-05T11:50:17.304Z,5.28
2022-10-05T11:53:02.158Z,7.72
2022-10-05T11:55:45.904Z,5.97
2022-10-05T11:58:32.587Z,7.70
2022-10-05T12:01:20.475Z,7.93
2022-10-05T12:04:12.474Z,5.63
2022-10-05T12:07:09.044Z,7.63
2022-10-05T12:10:22.050Z,7.00
2022-10-05T12:13:22.297Z,6.38
2022-10-05T12:16:09.201Z,7.18
2022-10-05T12:19:00.345Z,8.35
2022-10-05T12:21:44.897Z,6.35
2022-10-05T12:24:30.894Z,8.20
2022-10-05T12:27:18.246Z,8.40
2022-10-05T12:30:03.562Z,10.82
2022-10-05T12:32:56.950Z,6.03
2022-10-05T12:35:49.300Z,5.93
2022-10-05T12:38:32.031Z,8.07
2022-10-05T12:41:21.704Z,6.80
2022-10-05T12:44:17.128Z,7.22
2022-10-05T12:47:07.534Z,7.07
2022-10-05T12:50:06.153Z,9.13
2022-10-05T12:53:05.761Z,6.03
2022-10-05T12:55:52.387Z,7.57
2022-10-05T12:58:41.409Z,9.02
2022-10-05T13:01:34.581Z,5.30
2022-10-05T13:04:27.155Z,6.43
2022-10-05T13:07:48.644Z,8.57
2022-10-05T13:10:36.744Z,8.88
2022-10-05T13:13:34.016Z,6.00
2022-10-05T13:16:31.213Z,8.35
2022-10-05T13:19:26.037Z,9.82
2022-10-05T13:22:30.804Z,6.75
2022-10-05T13:25:23.842Z,7.53
2022-10-05T13:28:20.526Z,5.18
2022-10-05T13:31:06.439Z,7.07
2022-10-05T13:34:01.320Z,11.90
2022-10-05T13:36:56.295Z,9.27
2022-10-05T13:39:59.933Z,7.35
2022-10-05T13:42:45.051Z,6.25
2022-10-05T13:45:26.344Z,9.02
2022-10-05T13:48:24.612Z,6.80
2022-10-05T13:51:10.819Z,5.55
2022-10-05T13:53:53.221Z,7.05
2022-10-05T13:56:37.126Z,9.35
2022-10-05T13:59:28.231Z,9.18
2022-10-05T14:02:11.904Z,6.00
2022-10-05T14:04:52.102Z,6.72
2022-10-05T14:07:35.408Z,7.22
2022-10-05T14:10:18.761Z,10.25
2022-10-05T14:12:59.247Z,9.00
2022-10-05T14:15:42.133Z,5.97
2022-10-05T14:18:28.879Z,8.40
2022-10-05T14:21:19.130Z,6.88
2022-10-05T14:23:56.793Z,5.85
2022-10-05T14:26:39.136Z,7.70
2022-10-05T14:29:29.669Z,7.32
2022-10-05T14:32:18.977Z,6.65
2022-10-05T14:35:16.967Z,7.25
2022-10-05T14:38:01.044Z,6.15
2022-10-05T14:40:40.625Z,8.40
2022-10-05T14:43:23.603Z,7.63
2022-10-05T14:46:05.678Z,6.38
2022-10-05T14:48:47.994Z,6.47
2022-10-05T14:51:32.203Z,5.28
2022-10-05T14:54:32.711Z,6.43
2022-10-05T14:57:20.303Z,6.55
2022-10-05T15:00:13.532Z,8.23
2022-10-05T15:03:11.102Z,6.10
2022-10-05T15:05:55.071Z,6.80
2022-10-05T15:08:56.134Z,7.85
2022-10-05T15:11:44.504Z,7.15
2022-10-05T15:14:27.373Z,6.93
2022-10-05T15:17:07.906Z,7.47
2022-10-05T15:19:59.724Z,8.05
2022-10-05T15:22:49.986Z,8.48
2022-10-05T15:25:33.154Z,7.75
2022-10-05T15:28:24.720Z,6.25
2022-10-05T15:31:07.121Z,7.78
2022-10-05T15:33:54.228Z,10.73
2022-10-05T15:36:43.370Z,9.50
2022-10-05T15:39:33.074Z,10.73
2022-10-05T15:42:15.787Z,7.53
2022-10-05T15:45:06.625Z,9.45
2022-10-05T15:47:56.516Z,6.53
2022-10-05T15:50:39.405Z,9.63
2022-10-05T15:53:26.356Z,10.35
2022-10-05T15:56:09.944Z,17.55
2022-10-05T15:59:00.478Z,12.60
2022-10-05T16:01:50.333Z,9.68
2022-10-05T16:04:43.256Z,12.85
2022-10-05T16:07:43.755Z,7.03
2022-10-05T16:10:26.422Z,13.07
2022-10-05T16:13:22.423Z,10.68
2022-10-05T16:16:24.236Z,11.77
2022-10-05T16:19:10.306Z,9.75
2022-10-05T16:21:58.350Z,20.50
2022-10-05T16:25:02.114Z,12.15
2022-10-05T16:27:56.105Z,8.48
2022-10-05T16:30:42.091Z,9.60
2022-10-05T16:33:29.590Z,11.30
2022-10-05T16:36:16.983Z,14.57
2022-10-05T16:39:02.922Z,10.18
2022-10-05T16:41:51.774Z,11.60
2022-10-05T16:44:42.985Z,11.05
2022-10-05T16:47:45.873Z,15.65
2022-10-05T16:50:30.900Z,10.40
2022-10-05T16:53:23.350Z,14.25
2022-10-05T16:56:05.454Z,14.75
2022-10-05T16:59:01.275Z,14.13
2022-10-05T17:01:56.583Z,14.50
2022-10-05T17:04:49.845Z,15.07
2022-10-05T17:07:51.265Z,14.90
2022-10-05T17:10:56.599Z,18.60
2022-10-05T17:14:06.653Z,16.83
2022-10-05T17:17:04.227Z,16.92
2022-10-05T17:19:59.061Z,16.45
2022-10-05T17:22:40.863Z,15.35
2022-10-05T17:25:24.629Z,16.42
2022-10-05T17:28:25.187Z,21.27
2022-10-05T17:31:19.895Z,17.25
2022-10-05T17:34:29.829Z,21.00
2022-10-05T17:37:35.873Z,17.80
2022-10-05T17:40:38.355Z,14.77
2022-10-05T17:43:31.056Z,15.38
2022-10-05T17:46:09.377Z,16.65
